createdAt,value
2018-06-04T00:00:23.465Z,0
2018-06-04T00:01:32.943Z,0
2018-06-04T00:02:42.696Z,0
2018-06-04T00:03:52.716Z,0
2018-06-04T00:05:02.735Z,0
2018-06-04T00:06:12.225Z,0
2018-06-04T00:07:21.974Z,0
2018-06-04T00:08:31.998Z,0
2018-06-04T00:09:42.014Z,0
2018-06-04T00:10:51.489Z,0
2018-06-04T00:12:01.285Z,0
2018-06-04T00:13:11.042Z,0
2018-06-04T00:14:21.057Z,0
2018-06-04T00:15:31.129Z,0
2018-06-04T00:16:40.609Z,4
2018-06-04T00:17:50.363Z,4
2018-06-04T00:19:00.121Z,4
2018-06-04T00:20:09.881Z,4
2018-06-04T00:21:19.902Z,4
2018-06-04T00:22:29.920Z,4
2018-06-04T00:23:39.942Z,4
2018-06-04T00:24:49.971Z,4
2018-06-04T00:25:59.988Z,0
2018-06-04T00:27:09.999Z,0
2018-06-04T00:28:20.028Z,0
2018-06-04T00:29:30.038Z,0
2018-06-04T00:30:40.099Z,0
2018-06-04T00:31:49.852Z,0
2018-06-04T00:32:59.879Z,4
2018-06-04T00:34:09.358Z,4
2018-06-04T00:35:19.587Z,4
2018-06-04T00:36:29.350Z,4
2018-06-04T00:37:39.365Z,4
2018-06-04T00:38:49.375Z,4
2018-06-04T00:39:58.323Z,0
2018-06-04T00:41:08.176Z,4
2018-06-04T00:42:18.198Z,4
2018-06-04T00:43:28.210Z,4
2018-06-04T00:44:37.952Z,4
2018-06-04T00:45:47.709Z,8
2018-06-04T00:46:57.458Z,4
2018-06-04T00:48:07.470Z,4
2018-06-04T00:49:17.211Z,4
2018-06-04T00:50:27.239Z,8
2018-06-04T00:51:37.257Z,4
2018-06-04T00:52:47.068Z,4
2018-06-04T00:53:57.088Z,8
2018-06-04T00:55:06.835Z,8
2018-06-04T00:56:16.853Z,8
2018-06-04T00:57:26.874Z,8
2018-06-04T00:58:36.406Z,8
2018-06-04T00:59:46.419Z,8
2018-06-04T01:00:55.917Z,8
2018-06-04T01:02:05.394Z,12
2018-06-04T01:03:15.156Z,12
2018-06-04T01:04:25.172Z,12
2018-06-04T01:05:34.923Z,12
2018-06-04T01:06:44.678Z,12
2018-06-04T01:07:54.425Z,16
2018-06-04T01:09:04.171Z,16
2018-06-04T01:10:13.912Z,16
2018-06-04T01:11:23.923Z,16
2018-06-04T01:12:33.675Z,20
2018-06-04T01:13:43.690Z,20
2018-06-04T01:14:53.445Z,24
2018-06-04T01:16:02.663Z,24
2018-06-04T01:17:12.146Z,28
2018-06-04T01:18:21.891Z,32
2018-06-04T01:19:31.375Z,28
2018-06-04T01:20:41.398Z,32
2018-06-04T01:21:51.412Z,36
2018-06-04T01:23:01.431Z,40
2018-06-04T01:24:11.177Z,40
2018-06-04T01:25:20.928Z,44
2018-06-04T01:26:30.715Z,48
2018-06-04T01:27:40.737Z,52
2018-06-04T01:28:50.752Z,52
2018-06-04T01:30:00.775Z,60
2018-06-04T01:31:10.807Z,64
2018-06-04T01:32:20.283Z,64
2018-06-04T01:33:30.037Z,72
2018-06-04T01:34:40.050Z,76
2018-06-04T01:35:50.071Z,84
2018-06-04T01:37:00.095Z,88
2018-06-04T01:38:10.112Z,96
2018-06-04T01:39:19.860Z,100
2018-06-04T01:40:29.609Z,108
2018-06-04T01:41:39.099Z,112
2018-06-04T01:42:48.847Z,124
2018-06-04T01:43:58.611Z,132
2018-06-04T01:45:08.639Z,140
2018-06-04T01:46:18.122Z,148
2018-06-04T01:47:27.866Z,152
2018-06-04T01:48:37.607Z,164
2018-06-04T01:49:47.624Z,172
2018-06-04T01:50:57.108Z,184
2018-06-04T01:52:06.855Z,192
2018-06-04T01:53:16.904Z,204
2018-06-04T01:54:26.917Z,216
2018-06-04T01:55:36.668Z,228
2018-06-04T01:56:46.690Z,244
2018-06-04T01:57:56.712Z,252
2018-06-04T01:59:06.189Z,268
2018-06-04T02:00:15.945Z,280
2018-06-04T02:01:25.962Z,292
2018-06-04T02:02:35.972Z,308
2018-06-04T02:03:46.034Z,324
2018-06-04T02:04:55.778Z,340
2018-06-04T02:06:05.266Z,356
2018-06-04T02:07:15.015Z,372
2018-06-04T02:08:25.176Z,388
2018-06-04T02:09:35.186Z,408
2018-06-04T02:10:45.199Z,424
2018-06-04T02:11:55.216Z,444
2018-06-04T02:13:05.235Z,460
2018-06-04T02:14:14.983Z,480
2018-06-04T02:15:24.722Z,500
2018-06-04T02:16:34.468Z,524
2018-06-04T02:17:43.955Z,544
2018-06-04T02:18:53.707Z,560
2018-06-04T02:20:03.723Z,584
2018-06-04T02:21:13.734Z,608
2018-06-04T02:22:23.496Z,632
2018-06-04T02:23:33.508Z,656
2018-06-04T02:24:43.572Z,676
2018-06-04T02:25:53.049Z,696
2018-06-04T02:27:02.811Z,720
2018-06-04T02:28:12.889Z,740
2018-06-04T02:29:22.906Z,768
2018-06-04T02:30:32.973Z,788
2018-06-04T02:31:42.178Z,812
2018-06-04T02:32:51.932Z,836
2018-06-04T02:34:01.949Z,856
2018-06-04T02:35:11.702Z,880
2018-06-04T02:36:21.464Z,904
2018-06-04T02:37:31.219Z,928
2018-06-04T02:38:40.978Z,952
2018-06-04T02:39:50.203Z,968
2018-06-04T02:40:59.971Z,996
2018-06-04T02:42:09.453Z,1020
2018-06-04T02:43:19.481Z,1040
2018-06-04T02:44:28.969Z,1060
2018-06-04T02:45:38.452Z,1084
2018-06-04T02:46:48.475Z,1108
2018-06-04T02:47:58.245Z,1132
2018-06-04T02:49:08.268Z,1156
2018-06-04T02:50:18.524Z,1176
2018-06-04T02:51:28.553Z,1200
2018-06-04T02:52:38.572Z,1228
2018-06-04T02:53:48.332Z,1248
2018-06-04T02:54:58.163Z,1264
2018-06-04T02:56:07.923Z,1288
2018-06-04T02:57:17.408Z,1308
2018-06-04T02:58:27.462Z,1328
2018-06-04T02:59:37.484Z,1348
2018-06-04T03:03:33.328Z,1416
2018-06-04T03:04:43.354Z,1440
2018-06-04T03:05:52.839Z,1456
2018-06-04T03:07:02.867Z,1472
2018-06-04T03:08:12.093Z,1500
2018-06-04T03:09:21.848Z,1524
2018-06-04T03:10:31.612Z,1544
2018-06-04T03:11:41.359Z,1564
2018-06-04T03:12:51.421Z,1584
2018-06-04T03:14:01.443Z,1600
2018-06-04T03:15:11.461Z,1616
2018-06-04T03:16:20.944Z,1644
2018-06-04T03:17:30.422Z,1660
2018-06-04T03:18:40.430Z,1676
2018-06-04T03:19:50.239Z,1700
2018-06-04T03:21:00.036Z,1732
2018-06-04T03:22:09.780Z,1732
2018-06-04T03:23:19.521Z,1756
2018-06-04T03:24:28.738Z,1768
2018-06-04T03:25:38.485Z,1784
2018-06-04T03:26:47.961Z,1800
2018-06-04T03:27:57.703Z,1812
2018-06-04T03:29:07.715Z,1836
2018-06-04T03:30:17.513Z,1852
2018-06-04T03:31:27.008Z,1876
2018-06-04T03:32:35.951Z,1892
2018-06-04T03:33:45.702Z,1916
2018-06-04T03:34:55.266Z,1916
2018-06-04T03:36:05.085Z,1936
2018-06-04T03:37:15.119Z,1952
2018-06-04T03:38:25.231Z,1972
2018-06-04T03:39:34.983Z,1984
2018-06-04T03:40:45.001Z,1996
2018-06-04T03:41:54.744Z,2008
2018-06-04T03:43:04.490Z,2024
2018-06-04T03:44:14.235Z,2040
2018-06-04T03:45:23.973Z,2060
2018-06-04T03:46:33.723Z,2076
2018-06-04T03:47:43.741Z,2092
2018-06-04T03:48:53.226Z,2112
2018-06-04T03:50:02.443Z,2128
2018-06-04T03:51:12.475Z,2152
2018-06-04T03:52:21.693Z,2156
2018-06-04T03:53:31.435Z,2164
2018-06-04T03:54:41.465Z,2176
2018-06-04T03:55:51.490Z,2196
2018-06-04T03:57:01.501Z,2212
2018-06-04T03:58:11.514Z,2220
2018-06-04T03:59:21.526Z,2220
2018-06-04T04:00:31.546Z,2244
2018-06-04T04:01:41.326Z,2252
2018-06-04T04:02:51.143Z,2264
2018-06-04T04:04:00.704Z,2272
2018-06-04T04:05:10.185Z,2292
2018-06-04T04:06:20.210Z,2304
2018-06-04T04:07:30.225Z,2312
2018-06-04T04:08:40.240Z,2312
2018-06-04T04:09:49.984Z,2332
2018-06-04T04:10:59.734Z,2340
2018-06-04T04:12:09.215Z,2352
2018-06-04T04:13:18.964Z,2352
2018-06-04T04:14:28.980Z,2356
2018-06-04T04:15:38.734Z,2380
2018-06-04T04:16:48.745Z,2384
2018-06-04T04:17:58.757Z,2408
2018-06-04T04:19:08.782Z,2400
2018-06-04T04:20:18.266Z,2420
2018-06-04T04:21:28.015Z,2424
2018-06-04T04:22:37.224Z,2436
2018-06-04T04:23:47.248Z,2468
2018-06-04T04:24:56.724Z,2480
2018-06-04T04:26:06.757Z,2480
2018-06-04T04:27:16.773Z,2512
2018-06-04T04:28:26.789Z,2504
2018-06-04T04:29:36.310Z,2504
2018-06-04T04:30:46.326Z,2508
2018-06-04T04:31:56.344Z,2504
2018-06-04T04:33:06.371Z,2504
2018-06-04T04:34:16.118Z,2520
2018-06-04T04:35:25.870Z,2532
2018-06-04T04:36:35.618Z,2544
2018-06-04T04:37:45.504Z,2552
2018-06-04T04:38:55.354Z,2564
2018-06-04T04:40:05.108Z,2584
2018-06-04T04:41:14.854Z,2604
2018-06-04T04:42:24.698Z,2608
2018-06-04T04:43:34.441Z,2628
2018-06-04T04:44:44.467Z,2628
2018-06-04T04:45:53.948Z,2644
2018-06-04T04:47:03.696Z,2664
2018-06-04T04:48:13.441Z,2656
2018-06-04T04:49:23.200Z,2668
2018-06-04T04:50:32.998Z,2676
2018-06-04T04:51:42.801Z,2684
2018-06-04T04:52:52.820Z,2688
2018-06-04T04:54:02.843Z,2696
2018-06-04T04:55:12.855Z,2708
2018-06-04T04:56:22.344Z,2716
2018-06-04T04:57:32.372Z,2736
2018-06-04T04:58:42.115Z,2756
2018-06-04T04:59:51.984Z,2744
2018-06-04T05:01:02.005Z,2760
2018-06-04T05:02:11.484Z,2776
2018-06-04T05:03:20.974Z,2792
2018-06-04T05:04:30.989Z,2788
2018-06-04T05:05:41.008Z,2796
2018-06-04T05:06:51.057Z,2804
2018-06-04T05:08:01.092Z,2828
2018-06-04T05:09:10.838Z,2824
2018-06-04T05:10:20.853Z,2844
2018-06-04T05:11:30.379Z,2832
2018-06-04T05:12:40.128Z,2836
2018-06-04T05:13:50.144Z,2852
2018-06-04T05:14:59.888Z,2860
2018-06-04T05:16:09.367Z,2880
2018-06-04T05:17:19.113Z,2860
2018-06-04T05:18:29.148Z,2876
2018-06-04T05:19:38.907Z,2860
2018-06-04T05:20:48.918Z,2868
2018-06-04T05:21:58.667Z,2876
2018-06-04T05:23:08.416Z,2892
2018-06-04T05:24:18.167Z,2908
2018-06-04T05:25:28.179Z,2888
2018-06-04T05:26:38.376Z,2900
2018-06-04T05:27:48.383Z,2904
2018-06-04T05:28:57.863Z,2920
2018-06-04T05:30:07.893Z,2936
2018-06-04T05:31:17.640Z,2936
2018-06-04T05:32:27.118Z,2936
2018-06-04T05:33:37.133Z,2932
2018-06-04T05:34:47.174Z,2940
2018-06-04T05:35:57.191Z,2944
2018-06-04T05:37:07.313Z,2968
2018-06-04T05:38:17.402Z,2940
2018-06-04T05:39:27.160Z,2952
2018-06-04T05:40:36.909Z,2956
2018-06-04T05:41:46.922Z,2960
2018-06-04T05:42:56.946Z,2944
2018-06-04T05:44:06.704Z,2968
2018-06-04T05:45:16.462Z,2984
2018-06-04T05:46:26.211Z,2968
2018-06-04T05:47:36.249Z,2964
2018-06-04T05:48:45.736Z,2992
2018-06-04T05:49:55.512Z,3016
2018-06-04T05:51:05.604Z,3008
2018-06-04T05:52:15.674Z,3024
2018-06-04T05:53:25.690Z,3000
2018-06-04T05:54:35.438Z,3052
2018-06-04T05:55:45.454Z,3100
2018-06-04T05:56:55.200Z,3112
2018-06-04T05:58:05.209Z,3056
2018-06-04T05:59:14.691Z,3008
2018-06-04T06:00:24.442Z,3040
2018-06-04T06:01:34.479Z,3164
2018-06-04T06:02:44.534Z,3272
2018-06-04T06:03:54.284Z,3172
2018-06-04T06:05:03.769Z,3140
2018-06-04T06:06:13.526Z,3092
2018-06-04T06:07:23.284Z,3024
2018-06-04T06:08:33.306Z,3016
2018-06-04T06:09:43.457Z,3000
2018-06-04T06:10:52.679Z,3008
2018-06-04T06:12:02.430Z,3032
2018-06-04T06:13:12.177Z,3028
2018-06-04T06:14:21.589Z,3032
2018-06-04T06:15:31.435Z,3008
2018-06-04T06:16:41.185Z,3012
2018-06-04T06:17:51.200Z,3008
2018-06-04T06:19:01.215Z,3012
2018-06-04T06:20:10.979Z,3020
2018-06-04T06:21:20.188Z,3008
2018-06-04T06:22:29.940Z,3028
2018-06-04T06:23:39.698Z,3040
2018-06-04T06:24:49.707Z,3036
2018-06-04T06:25:59.185Z,3032
2018-06-04T06:27:08.402Z,3032
2018-06-04T06:28:18.426Z,3028
2018-06-04T06:29:27.908Z,3048
2018-06-04T06:30:37.395Z,3056
2018-06-04T06:31:47.144Z,3088
2018-06-04T06:32:56.897Z,3112
2018-06-04T06:34:06.652Z,3136
2018-06-04T06:35:16.409Z,3116
2018-06-04T06:36:26.159Z,3092
2018-06-04T06:37:36.020Z,3096
2018-06-04T06:38:46.147Z,3120
2018-06-04T06:39:56.162Z,3088
2018-06-04T06:41:05.918Z,3088
2018-06-04T06:42:15.946Z,3096
2018-06-04T06:43:26.013Z,3092
2018-06-04T06:44:36.028Z,3116
2018-06-04T06:45:46.058Z,3112
2018-06-04T06:46:55.894Z,3124
2018-06-04T06:48:05.641Z,3124
2018-06-04T06:49:15.699Z,3116
2018-06-04T06:50:25.715Z,3128
2018-06-04T06:51:35.727Z,3116
2018-06-04T06:52:45.215Z,3144
2018-06-04T06:53:54.959Z,3152
2018-06-04T06:55:04.713Z,3132
2018-06-04T06:56:14.721Z,3132
2018-06-04T06:57:24.205Z,3140
2018-06-04T06:58:34.231Z,3124
2018-06-04T06:59:43.739Z,3128
2018-06-04T07:00:53.220Z,3136
2018-06-04T07:02:03.598Z,3136
2018-06-04T07:03:13.140Z,3144
2018-06-04T07:04:23.164Z,3160
2018-06-04T07:05:33.182Z,3164
2018-06-04T07:06:43.204Z,3168
2018-06-04T07:07:52.695Z,3184
2018-06-04T07:09:02.448Z,3192
2018-06-04T07:10:11.963Z,3192
2018-06-04T07:11:21.980Z,3196
2018-06-04T07:12:31.990Z,3188
2018-06-04T07:13:42.008Z,3204
2018-06-04T07:14:51.487Z,3204
2018-06-04T07:16:01.507Z,3236
2018-06-04T07:17:11.264Z,3252
2018-06-04T07:18:20.742Z,3256
2018-06-04T07:19:30.810Z,3256
2018-06-04T07:20:40.561Z,3288
2018-06-04T07:21:50.588Z,3360
2018-06-04T07:23:00.335Z,3600
2018-06-04T07:24:10.089Z,3860
2018-06-04T07:25:19.931Z,3988
2018-06-04T07:26:29.946Z,3864
2018-06-04T07:27:39.693Z,3908
2018-06-04T07:28:49.709Z,4132
2018-06-04T07:29:59.723Z,4220
2018-06-04T07:31:09.736Z,3704
2018-06-04T07:32:19.755Z,3416
2018-06-04T07:33:29.772Z,3340
2018-06-04T07:34:39.524Z,3344
2018-06-04T07:35:49.005Z,3356
2018-06-04T07:36:58.751Z,3364
2018-06-04T07:38:07.962Z,3356
2018-06-04T07:39:17.734Z,3384
2018-06-04T07:40:27.752Z,3380
2018-06-04T07:41:37.495Z,3392
2018-06-04T07:42:47.525Z,3408
2018-06-04T07:43:56.999Z,3408
2018-06-04T07:45:05.946Z,3420
2018-06-04T07:46:15.711Z,3408
2018-06-04T07:47:25.744Z,3412
2018-06-04T07:48:35.495Z,3420
2018-06-04T07:49:45.519Z,3420
2018-06-04T07:50:55.595Z,3424
2018-06-04T07:52:05.347Z,3436
2018-06-04T07:53:15.094Z,3444
2018-06-04T07:54:24.847Z,3460
2018-06-04T07:55:34.873Z,3472
2018-06-04T07:56:44.642Z,3500
2018-06-04T07:57:54.657Z,3532
2018-06-04T07:59:04.421Z,3552
2018-06-04T08:00:14.441Z,3556
2018-06-04T08:01:24.464Z,3564
2018-06-04T08:02:34.495Z,3572
2018-06-04T08:03:44.512Z,3580
2018-06-04T08:04:53.997Z,3592
2018-06-04T08:06:04.013Z,3608
2018-06-04T08:07:14.024Z,3624
2018-06-04T08:08:24.047Z,3628
2018-06-04T08:09:34.065Z,3652
2018-06-04T08:10:44.087Z,3684
2018-06-04T08:11:53.880Z,3768
2018-06-04T08:13:04.006Z,3768
2018-06-04T08:14:13.758Z,3748
2018-06-04T08:15:23.774Z,3792
2018-06-04T08:16:33.534Z,3828
2018-06-04T08:17:43.301Z,3804
2018-06-04T08:18:53.056Z,3828
2018-06-04T08:20:02.870Z,3868
2018-06-04T08:21:12.359Z,3904
2018-06-04T08:22:22.370Z,3908
2018-06-04T08:23:32.389Z,3912
2018-06-04T08:24:42.418Z,3968
2018-06-04T08:25:52.164Z,4060
2018-06-04T08:27:01.649Z,4044
2018-06-04T08:28:10.595Z,3932
2018-06-04T08:29:20.983Z,3884
2018-06-04T08:30:30.791Z,3956
2018-06-04T08:31:40.278Z,3968
2018-06-04T08:32:50.297Z,3916
2018-06-04T08:34:00.317Z,3908
2018-06-04T08:35:10.066Z,3960
2018-06-04T08:36:19.828Z,3984
2018-06-04T08:37:29.842Z,4136
2018-06-04T08:38:39.952Z,4360
2018-06-04T08:39:49.702Z,4256
2018-06-04T08:40:59.464Z,4028
2018-06-04T08:42:09.219Z,3964
2018-06-04T08:43:18.697Z,3972
2018-06-04T08:44:28.717Z,4008
2018-06-04T08:45:38.840Z,4000
2018-06-04T08:46:48.975Z,3920
2018-06-04T08:47:58.460Z,3968
2018-06-04T08:49:08.209Z,3988
2018-06-04T08:50:17.971Z,4004
2018-06-04T08:51:27.995Z,4012
2018-06-04T08:52:38.014Z,4012
2018-06-04T08:53:48.037Z,4020
2018-06-04T08:54:57.729Z,4028
2018-06-04T08:56:07.483Z,4032
2018-06-04T08:57:17.509Z,4040
2018-06-04T08:58:27.274Z,4052
2018-06-04T08:59:37.022Z,4064
2018-06-04T09:00:46.780Z,4052
2018-06-04T09:01:56.809Z,4068
2018-06-04T09:03:06.576Z,4092
2018-06-04T09:04:16.059Z,4108
2018-06-04T09:05:25.546Z,4104
2018-06-04T09:06:35.027Z,4108
2018-06-04T09:07:44.522Z,4124
2018-06-04T09:08:54.537Z,4136
2018-06-04T09:10:04.568Z,4152
2018-06-04T09:11:14.586Z,4160
2018-06-04T09:12:23.811Z,4196
2018-06-04T09:13:33.560Z,4208
2018-06-04T09:14:43.040Z,4220
2018-06-04T09:15:52.981Z,4208
2018-06-04T09:17:03.001Z,4228
2018-06-04T09:18:13.021Z,4244
2018-06-04T09:19:22.768Z,4260
2018-06-04T09:20:32.524Z,4276
2018-06-04T09:21:42.400Z,4272
2018-06-04T09:22:51.883Z,4272
2018-06-04T09:24:01.635Z,4280
2018-06-04T09:25:12.680Z,4304
2018-06-04T09:26:22.699Z,4332
2018-06-04T09:27:32.449Z,4340
2018-06-04T09:28:42.467Z,4352
2018-06-04T09:29:52.483Z,4344
2018-06-04T09:31:02.240Z,4348
2018-06-04T09:32:11.993Z,4356
2018-06-04T09:33:21.482Z,4352
2018-06-04T09:34:30.966Z,4380
2018-06-04T09:35:40.991Z,4384
2018-06-04T09:36:51.015Z,4372
2018-06-04T09:38:00.784Z,4380
2018-06-04T09:39:09.732Z,4380
2018-06-04T09:40:19.753Z,4380
2018-06-04T09:41:29.777Z,4380
2018-06-04T09:42:39.328Z,4380
2018-06-04T09:43:49.084Z,4388
2018-06-04T09:44:58.564Z,4384
2018-06-04T09:46:08.333Z,4400
2018-06-04T09:47:18.358Z,4408
2018-06-04T09:48:28.106Z,4412
2018-06-04T09:49:38.124Z,4424
2018-06-04T09:50:47.703Z,4432
2018-06-04T09:51:57.460Z,4444
2018-06-04T09:53:07.489Z,4460
2018-06-04T09:54:17.619Z,4472
2018-06-04T09:55:27.370Z,4480
2018-06-04T09:56:37.140Z,4484
2018-06-04T09:57:46.622Z,4484
2018-06-04T09:58:56.379Z,4492
2018-06-04T10:00:06.415Z,4508
2018-06-04T10:01:16.168Z,4524
2018-06-04T10:02:25.923Z,4540
2018-06-04T10:03:35.405Z,4532
2018-06-04T10:04:44.970Z,4532
2018-06-04T10:05:54.840Z,4548
2018-06-04T10:07:04.855Z,4552
2018-06-04T10:08:14.336Z,4548
2018-06-04T10:09:24.095Z,4552
2018-06-04T10:10:34.123Z,4560
2018-06-04T10:11:43.875Z,4568
2018-06-04T10:12:53.365Z,4588
2018-06-04T10:14:03.435Z,4596
2018-06-04T10:15:13.456Z,4604
2018-06-04T10:16:23.218Z,4620
2018-06-04T10:17:33.240Z,4628
2018-06-04T10:18:43.008Z,4640
2018-06-04T10:19:52.589Z,4656
2018-06-04T10:21:02.615Z,4672
2018-06-04T10:22:12.366Z,4684
2018-06-04T10:23:21.853Z,4700
2018-06-04T10:24:31.610Z,4712
2018-06-04T10:25:41.358Z,4724
2018-06-04T10:26:51.373Z,4732
2018-06-04T10:28:01.266Z,4748
2018-06-04T10:29:10.216Z,4764
2018-06-04T10:30:20.233Z,4768
2018-06-04T10:31:30.701Z,4780
2018-06-04T10:32:40.465Z,4788
2018-06-04T10:33:50.486Z,4804
2018-06-04T10:35:00.506Z,4820
2018-06-04T10:36:10.734Z,4828
2018-06-04T10:37:21.204Z,4836
2018-06-04T10:38:31.441Z,4860
2018-06-04T10:39:41.465Z,4864
2018-06-04T10:40:51.492Z,4868
2018-06-04T10:42:01.526Z,4880
2018-06-04T10:43:11.283Z,4884
2018-06-04T10:44:20.772Z,4896
2018-06-04T10:45:29.993Z,4964
2018-06-04T10:46:40.260Z,4972
2018-06-04T10:47:49.829Z,4972
2018-06-04T10:48:59.858Z,4984
2018-06-04T10:50:09.616Z,5072
2018-06-04T10:51:19.635Z,5132
2018-06-04T10:52:29.116Z,5136
2018-06-04T10:53:38.872Z,5092
2018-06-04T10:54:50.735Z,5096
2018-06-04T10:56:00.980Z,5100
2018-06-04T10:57:10.758Z,5104
2018-06-04T10:58:20.784Z,5096
2018-06-04T10:59:31.025Z,5104
2018-06-04T11:00:41.248Z,5108
2018-06-04T11:01:51.248Z,5116
2018-06-04T11:03:03.073Z,5140
2018-06-04T11:04:12.827Z,5152
2018-06-04T11:05:22.045Z,5180
2018-06-04T11:06:31.905Z,5200
2018-06-04T11:07:42.220Z,5212
2018-06-04T11:08:52.022Z,5212
2018-06-04T11:10:02.050Z,5240
2018-06-04T11:11:11.516Z,5244
2018-06-04T11:12:21.867Z,5264
2018-06-04T11:13:32.030Z,5292
2018-06-04T11:14:42.313Z,5320
2018-06-04T11:15:52.354Z,5332
2018-06-04T11:17:02.324Z,5348
2018-06-04T11:18:12.128Z,5380
2018-06-04T11:19:22.149Z,5396
